Terminal Aerodrome Forecast
Issued by NWS Duluth, MN

Home | Current Version | Previous Version | Text Only | Print | Product List | Glossary On
Versions: 1 2 3 4 5 6 7 8 9 10 11 12 13 14 15 16 17 18 19 20 21 22 23 24 25 26 27 28 29 30 31 32 33 34
094
FTUS43 KDLH 221727
TAFDLH
TAF
KDLH 221727Z 2218/2318 14009KT P6SM VCSH OVC010
      TEMPO 2218/2219 SCT010
     FM221900 10007KT P6SM SCT035
     FM222100 12007KT P6SM VCSH BKN060
      TEMPO 2223/2301 5SM -TSRA SCT020 BKN035CB
     FM230500 25004KT 6SM BR SCT015 BKN050
     FM231200 32005KT P6SM BKN035
     FM231600 01008KT P6SM BKN050=

USA.gov is the U.S. government's official web portal to all federal, state and local government web resources and services.